Time;durP1;ratioP1;P1;durP2;ratioP2;P2;SDS_P1;SDS_P2;PMS_P1;PMS_P2;Temp;Humidity;BMP_temperature;BMP_pressure;BME280_temperature;BME280_humidity;BME280_pressure;Samples;Min_cycle;Max_cycle;Signal;HPM_P1;HPM_P2
2021/07/20 00:02:40;;;;;;;3.33;3.10;;;;;;;31.96;41.79;98961.77;1693010;84;21050;-48
2021/07/20 00:05:09;;;;;;;3.37;3.08;;;;;;;31.94;41.78;98962.50;1693116;84;21011;-48
2021/07/20 00:07:35;;;;;;;2.83;2.62;;;;;;;31.94;41.81;98962.50;1693169;84;21111;-50
2021/07/20 00:10:07;;;;;;;3.55;3.17;;;;;;;31.92;41.81;98963.23;1707329;81;21031;-50
2021/07/20 00:12:34;;;;;;;3.60;3.30;;;;;;;31.92;41.84;98971.39;1720704;83;21522;-50
2021/07/20 00:15:01;;;;;;;3.60;3.30;;;;;;;31.92;41.85;98970.03;1719849;83;21038;-48
2021/07/20 00:17:28;;;;;;;4.67;3.15;;;;;;;31.91;41.82;98964.27;1720339;82;21078;-50
2021/07/20 00:19:56;;;;;;;3.17;2.92;;;;;;;31.90;41.86;98962.61;1720675;83;20987;-49
2021/07/20 00:22:23;;;;;;;2.90;2.60;;;;;;;31.89;41.85;98959.02;1723113;82;21043;-49
2021/07/20 00:24:49;;;;;;;2.77;2.58;;;;;;;31.89;41.86;98961.75;1734736;82;21557;-48
2021/07/20 00:27:16;;;;;;;3.08;2.80;;;;;;;31.88;41.87;98961.45;1734984;82;21075;-50
2021/07/20 00:29:43;;;;;;;2.85;2.65;;;;;;;31.88;41.89;98960.09;1713619;82;21032;-49
2021/07/20 00:32:10;;;;;;;3.52;2.90;;;;;;;31.88;41.88;98964.70;1713446;82;21035;-50
2021/07/20 00:34:38;;;;;;;3.15;2.95;;;;;;;31.87;41.87;98957.56;1751960;81;21015;-50
2021/07/20 00:37:07;;;;;;;3.45;2.75;;;;;;;31.87;41.89;98965.73;1768587;81;20988;-48
2021/07/20 00:39:33;;;;;;;2.95;2.75;;;;;;;31.87;41.89;98965.73;1768256;81;21098;-49
2021/07/20 00:42:01;;;;;;;3.45;2.92;;;;;;;31.84;41.90;98963.75;1768361;81;22203;-49
2021/07/20 00:44:28;;;;;;;3.00;2.80;;;;;;;31.84;41.90;98978.70;1768257;81;21115;-49
2021/07/20 00:46:55;;;;;;;3.50;3.22;;;;;;;31.84;41.93;98978.70;1765311;81;21075;-46
2021/07/20 00:49:22;;;;;;;2.92;2.72;;;;;;;31.83;41.90;98978.38;1728333;81;21552;-50
2021/07/20 00:51:48;;;;;;;3.30;3.00;;;;;;;31.83;41.93;98978.38;1757102;81;21166;-50
2021/07/20 00:54:16;;;;;;;3.30;3.10;;;;;;;31.82;41.92;98973.97;1746058;81;21539;-49
2021/07/20 00:56:44;;;;;;;3.45;2.65;;;;;;;31.82;41.92;98970.42;1714055;83;21145;-49
2021/07/20 00:59:12;;;;;;;5.28;3.20;;;;;;;31.81;41.95;98968.76;1711238;83;21044;-49
2021/07/20 01:01:39;;;;;;;3.42;2.98;;;;;;;31.81;41.92;98970.95;1720558;82;20990;-49
2021/07/20 01:04:06;;;;;;;3.20;3.00;;;;;;;31.80;41.96;98963.81;1707324;82;21110;-49
2021/07/20 01:06:34;;;;;;;3.15;2.58;;;;;;;31.80;41.95;98962.98;1723067;82;21079;-48
2021/07/20 01:09:03;;;;;;;5.00;2.75;;;;;;;31.79;41.95;98967.59;1723076;81;21232;-50
2021/07/20 01:11:34;;;;;;;2.92;2.72;;;;;;;31.78;41.97;98967.27;1751121;81;21019;-50
2021/07/20 01:14:04;;;;;;;3.25;2.95;;;;;;;31.79;41.96;98962.66;1746891;82;21066;-49
2021/07/20 01:16:32;;;;;;;3.40;3.10;;;;;;;31.77;41.96;98956.06;1745371;82;21094;-49
2021/07/20 01:19:01;;;;;;;4.17;3.37;;;;;;;31.77;41.96;98953.34;1708572;82;21000;-50
2021/07/20 01:21:28;;;;;;;3.02;2.83;;;;;;;31.77;41.98;98948.44;1697688;84;21216;-49
2021/07/20 01:23:56;;;;;;;3.70;3.10;;;;;;;31.76;42.00;98950.86;1716930;83;21013;-47
2021/07/20 01:26:25;;;;;;;3.20;2.98;;;;;;;31.75;41.99;98949.99;1727141;82;21044;-50
2021/07/20 01:28:52;;;;;;;3.12;2.90;;;;;;;31.75;41.99;98953.24;1731529;82;21024;-49
2021/07/20 01:31:24;;;;;;;4.12;3.45;;;;;;;31.76;41.99;98965.81;1731543;82;21060;-49
2021/07/20 01:33:54;;;;;;;3.15;2.87;;;;;;;31.73;42.02;98968.41;1706747;82;21075;-49
2021/07/20 01:36:22;;;;;;;3.27;2.98;;;;;;;31.73;42.01;98964.33;1708431;82;21207;-50
2021/07/20 01:38:51;;;;;;;3.37;3.12;;;;;;;31.72;42.02;98959.91;1706288;84;21072;-49
2021/07/20 01:41:19;;;;;;;3.37;3.08;;;;;;;31.72;42.02;98964.00;1662740;84;21629;-50
2021/07/20 01:44:00;;;;;;;3.37;3.10;;;;;;;31.71;42.03;98966.42;1685743;83;21036;-50
2021/07/20 01:46:30;;;;;;;3.55;3.27;;;;;;;31.70;42.03;98974.25;1686260;84;21138;-49
2021/07/20 01:48:56;;;;;;;5.05;3.20;;;;;;;31.70;42.06;98979.69;1708949;82;21055;-49
2021/07/20 01:51:23;;;;;;;3.10;2.90;;;;;;;31.69;42.07;98982.11;1736740;82;21166;-49
2021/07/20 01:53:50;;;;;;;3.47;3.12;;;;;;;31.68;42.05;98978.23;1710079;82;21950;-48
2021/07/20 01:56:18;;;;;;;3.65;3.35;;;;;;;31.68;42.05;98979.05;1707896;82;21074;-51
2021/07/20 01:58:44;;;;;;;3.20;2.87;;;;;;;31.68;42.07;98973.62;1689646;83;21790;-49
2021/07/20 02:01:37;;;;;;;3.27;3.00;;;;;;;31.67;42.09;98971.93;1713770;81;21029;-48
2021/07/20 02:09:29;;;;;;;3.25;2.95;;;;;;;31.65;42.08;98963.14;1693304;84;21107;-50
2021/07/20 02:11:56;;;;;;;3.15;2.85;;;;;;;31.65;42.06;98963.14;1670891;84;21066;-48
2021/07/20 02:14:30;;;;;;;3.65;3.35;;;;;;;31.64;42.10;98956.02;1648353;86;21085;-49
2021/07/20 02:17:12;;;;;;;3.22;3.00;;;;;;;31.63;42.08;98949.74;1700679;83;21035;-49
2021/07/20 02:19:50;;;;;;;3.08;2.87;;;;;;;31.64;42.09;98954.66;1688773;83;21131;-50
2021/07/20 02:22:20;;;;;;;3.83;3.42;;;;;;;31.63;42.09;98962.52;1671644;85;21571;-49
2021/07/20 02:24:53;;;;;;;3.22;3.02;;;;;;;31.63;42.09;98961.16;1728830;82;21094;-50
2021/07/20 02:27:21;;;;;;;3.30;3.00;;;;;;;31.62;42.07;98961.69;1713747;82;21087;-47
2021/07/20 02:29:56;;;;;;;3.58;3.27;;;;;;;31.63;42.07;98962.52;1725745;82;21036;-50
2021/07/20 02:32:23;;;;;;;3.40;3.10;;;;;;;31.63;42.08;98960.62;1745162;80;21099;-50
2021/07/20 02:34:50;;;;;;;4.22;2.80;;;;;;;31.63;42.07;98957.08;1768442;81;21502;-49
2021/07/20 02:40:33;;;;;;;3.05;2.80;;;;;;;31.64;42.01;98960.09;1676717;82;21059;-51
2021/07/20 02:43:02;;;;;;;3.58;3.25;;;;;;;31.65;41.99;98969.41;1723054;82;21520;-50
2021/07/20 02:45:32;;;;;;;3.33;3.02;;;;;;;31.65;42.00;98972.13;1722971;83;21073;-49
2021/07/20 02:47:58;;;;;;;3.75;3.45;;;;;;;31.67;41.97;98966.48;1679253;82;21181;-49
2021/07/20 02:50:28;;;;;;;3.40;3.10;;;;;;;31.68;41.94;98969.54;1736390;82;21106;-47
2021/07/20 02:53:08;;;;;;;3.55;3.25;;;;;;;31.72;41.88;98972.16;1734924;82;21063;-48
2021/07/20 02:55:37;;;;;;;3.40;3.10;;;;;;;31.78;41.78;98973.24;1725859;82;21062;-48
2021/07/20 02:58:04;;;;;;;3.40;3.10;;;;;;;31.84;41.65;98973.27;1716201;83;21051;-46
2021/07/20 03:01:07;;;;;;;3.60;3.17;;;;;;;31.93;41.48;98970.36;1693690;83;21111;-49
2021/07/20 03:03:35;;;;;;;3.90;3.50;;;;;;;32.02;41.31;98978.64;1673996;82;21159;-50
2021/07/20 03:06:02;;;;;;;3.55;3.25;;;;;;;32.11;41.09;98984.26;1724606;82;21066;-50
2021/07/20 03:08:29;;;;;;;3.37;3.17;;;;;;;32.17;40.94;98988.85;1721550;83;21130;-49
2021/07/20 03:11:14;;;;;;;3.50;3.20;;;;;;;32.20;40.83;98991.17;1719720;82;22174;-49
2021/07/20 03:13:47;;;;;;;3.12;2.92;;;;;;;32.23;40.75;98989.93;1691376;83;21740;-48
2021/07/20 03:16:14;;;;;;;3.80;3.27;;;;;;;32.29;40.66;98982.81;1694786;83;21171;-50
2021/07/20 03:18:44;;;;;;;4.10;3.27;;;;;;;32.35;40.57;98981.99;1683263;83;21047;-49
2021/07/20 03:21:13;;;;;;;3.70;3.30;;;;;;;32.40;40.47;98984.92;1685557;83;21122;-49
2021/07/20 03:23:42;;;;;;;3.27;2.98;;;;;;;32.44;40.35;98977.18;1687007;83;21054;-50
2021/07/20 03:26:08;;;;;;;3.50;3.10;;;;;;;32.49;40.24;98976.86;1709268;83;20979;-47
2021/07/20 03:28:35;;;;;;;3.67;3.37;;;;;;;32.54;40.13;98971.62;1709101;83;23334;-49
2021/07/20 03:31:02;;;;;;;5.08;3.45;;;;;;;32.60;40.02;98976.77;1682484;84;21086;-49
2021/07/20 03:33:31;;;;;;;3.27;3.08;;;;;;;32.64;39.91;98981.30;1707354;84;21545;-47
2021/07/20 03:36:06;;;;;;;3.50;3.20;;;;;;;32.72;39.80;98982.46;1682684;83;21598;-48
2021/07/20 03:38:34;;;;;;;3.17;2.90;;;;;;;32.83;39.61;98980.98;1709269;83;21031;-49
2021/07/20 03:41:02;;;;;;;3.70;3.20;;;;;;;32.93;39.41;98975.93;1689545;83;22132;-49
2021/07/20 03:43:29;;;;;;;3.37;2.72;;;;;;;33.08;39.17;98977.06;1709211;83;21040;-49
2021/07/20 03:45:59;;;;;;;3.10;2.80;;;;;;;33.28;38.83;98983.34;1709505;83;21091;-48
2021/07/20 03:48:30;;;;;;;3.52;3.17;;;;;;;33.52;38.40;98976.86;1664655;82;21064;-49
2021/07/20 03:50:58;;;;;;;4.72;3.12;;;;;;;33.79;37.93;98976.78;1733926;82;21554;-50
2021/07/20 03:53:25;;;;;;;3.37;3.08;;;;;;;34.03;37.47;98977.39;1734142;82;21198;-51
2021/07/20 03:55:57;;;;;;;3.60;3.30;;;;;;;34.28;37.01;98984.84;1693265;83;21004;-49
2021/07/20 03:58:24;;;;;;;2.95;2.75;;;;;;;34.52;36.57;98975.53;1679956;83;21086;-49
2021/07/20 04:00:52;;;;;;;3.65;2.83;;;;;;;34.75;36.15;98985.34;1707735;82;20988;-49
2021/07/20 04:03:22;;;;;;;5.00;3.12;;;;;;;34.96;35.74;98987.36;1679430;84;21063;-50
2021/07/20 04:06:12;;;;;;;2.80;2.60;;;;;;;35.15;35.37;98987.70;1698720;84;21112;-49
2021/07/20 04:08:51;;;;;;;3.75;3.12;;;;;;;35.38;34.95;98982.11;1703518;83;21055;-50
2021/07/20 04:11:18;;;;;;;2.90;2.70;;;;;;;35.64;34.52;98986.44;1709733;83;21478;-50
2021/07/20 04:13:46;;;;;;;3.05;2.83;;;;;;;35.87;34.12;98988.47;1709137;83;21052;-50
2021/07/20 04:16:15;;;;;;;3.80;3.37;;;;;;;36.11;33.72;98989.93;1676042;83;21111;-51
2021/07/20 04:18:42;;;;;;;4.55;3.35;;;;;;;36.32;33.34;98985.88;1716332;83;21110;-50
2021/07/20 04:21:11;;;;;;;2.90;2.70;;;;;;;36.52;32.97;98984.19;1718590;83;21062;-49
2021/07/20 04:23:38;;;;;;;3.27;3.02;;;;;;;36.70;32.68;98990.64;1713143;83;21026;-50
2021/07/20 04:26:07;;;;;;;3.30;3.00;;;;;;;36.78;32.48;99001.28;1687726;83;21046;-51
2021/07/20 04:28:35;;;;;;;3.37;2.77;;;;;;;36.83;32.36;99004.15;1691021;83;21138;-50
2021/07/20 04:31:02;;;;;;;3.00;2.80;;;;;;;36.90;32.22;99006.23;1719684;83;22641;-49
2021/07/20 04:33:32;;;;;;;3.10;2.90;;;;;;;37.02;32.01;99014.48;1718971;83;21086;-49
2021/07/20 04:36:18;;;;;;;2.77;2.58;;;;;;;37.13;31.83;99008.69;1718738;83;21461;-49
2021/07/20 04:38:46;;;;;;;2.70;2.50;;;;;;;37.24;31.63;99007.89;1693898;83;21070;-49
2021/07/20 04:41:17;;;;;;;2.75;2.55;;;;;;;37.32;31.47;99002.56;1691052;83;21568;-50
2021/07/20 04:43:45;;;;;;;2.83;2.62;;;;;;;37.33;31.41;98998.20;1720112;83;22214;-48
2021/07/20 04:46:13;;;;;;;2.77;2.58;;;;;;;37.34;31.36;99001.25;1719102;83;22302;-49
2021/07/20 04:48:40;;;;;;;2.65;2.45;;;;;;;37.30;31.40;99001.42;1684860;83;21213;-50
2021/07/20 04:51:08;;;;;;;2.95;2.75;;;;;;;37.21;31.47;98999.31;1716477;83;21042;-50
2021/07/20 04:53:39;;;;;;;2.90;2.70;;;;;;;37.08;31.60;98994.86;1719135;83;21046;-50
2021/07/20 04:56:06;;;;;;;3.12;2.50;;;;;;;36.94;31.77;98992.36;1719366;82;22139;-50
2021/07/20 04:58:34;;;;;;;3.30;3.02;;;;;;;36.80;31.98;98985.43;1717442;83;21092;-49
2021/07/20 05:01:01;;;;;;;2.90;2.70;;;;;;;36.67;32.15;98982.88;1697127;83;21043;-49
2021/07/20 05:03:31;;;;;;;3.10;2.90;;;;;;;36.53;32.35;98987.76;1717609;83;21051;-50
2021/07/20 05:05:58;;;;;;;3.02;2.80;;;;;;;36.41;32.56;98986.36;1697123;83;21047;-50
2021/07/20 05:08:28;;;;;;;2.80;2.60;;;;;;;36.29;32.74;98986.87;1717055;83;21023;-50
2021/07/20 05:10:57;;;;;;;2.85;2.65;;;;;;;36.18;32.91;98986.58;1696942;83;21063;-49
2021/07/20 05:13:25;;;;;;;2.65;2.42;;;;;;;36.09;33.08;98999.74;1718831;83;20995;-50
2021/07/20 05:15:57;;;;;;;2.42;2.22;;;;;;;36.02;33.18;99002.29;1718892;83;21043;-50
2021/07/20 05:18:24;;;;;;;3.02;2.75;;;;;;;35.93;33.33;98999.56;1710561;83;21047;-50
2021/07/20 05:20:57;;;;;;;3.00;2.80;;;;;;;35.83;33.47;99002.33;1703945;84;21154;-50
2021/07/20 05:23:24;;;;;;;2.85;2.60;;;;;;;35.78;33.59;99004.92;1685242;83;21568;-50
2021/07/20 05:26:12;;;;;;;2.80;2.60;;;;;;;35.73;33.71;99005.28;1656052;85;21165;-50
2021/07/20 05:28:39;;;;;;;3.12;2.70;;;;;;;35.68;33.79;99014.18;1705512;83;21551;-50
2021/07/20 05:31:06;;;;;;;4.28;3.00;;;;;;;35.61;33.89;99007.92;1700326;83;21098;-50
2021/07/20 05:33:33;;;;;;;2.60;2.40;;;;;;;35.55;33.96;99000.66;1721790;83;21241;-48
2021/07/20 05:36:06;;;;;;;2.98;2.67;;;;;;;35.52;34.04;99004.67;1677983;83;21057;-49
2021/07/20 05:38:35;;;;;;;2.65;2.45;;;;;;;35.48;34.11;99004.30;1717188;83;21061;-50
2021/07/20 05:41:09;;;;;;;2.52;2.37;;;;;;;35.44;34.17;99005.83;1673079;83;21053;-49
2021/07/20 05:43:36;;;;;;;3.05;2.85;;;;;;;35.42;34.22;99005.20;1693059;83;22187;-50
2021/07/20 05:46:03;;;;;;;2.70;2.50;;;;;;;35.39;34.26;99002.94;1721982;83;23310;-49
2021/07/20 05:48:31;;;;;;;2.45;2.35;;;;;;;35.37;34.30;99009.69;1672804;84;21079;-48
2021/07/20 05:51:01;;;;;;;3.17;2.80;;;;;;;35.34;34.33;99013.19;1661930;84;21105;-49
2021/07/20 05:53:36;;;;;;;2.50;2.30;;;;;;;35.32;34.39;99015.32;1685440;84;21087;-50
2021/07/20 05:56:21;;;;;;;2.75;2.60;;;;;;;35.30;34.44;99009.76;1689038;83;22257;-50
2021/07/20 05:58:49;;;;;;;2.95;2.75;;;;;;;35.28;34.47;99012.72;1714900;83;21214;-49
2021/07/20 06:01:18;;;;;;;2.30;2.15;;;;;;;35.28;34.48;99013.26;1712554;83;21373;-50
2021/07/20 06:03:46;;;;;;;2.80;2.60;;;;;;;35.26;34.51;99008.02;1693741;83;21083;-48
2021/07/20 06:06:13;;;;;;;2.77;2.58;;;;;;;35.24;34.54;99007.92;1717590;83;21609;-48
2021/07/20 06:08:40;;;;;;;2.80;2.58;;;;;;;35.21;34.58;99009.73;1717254;83;21051;-50
2021/07/20 06:11:07;;;;;;;2.70;2.50;;;;;;;35.18;34.62;99004.71;1727808;82;21070;-49
2021/07/20 06:13:36;;;;;;;2.83;2.62;;;;;;;35.15;34.68;99005.98;1726403;82;21127;-50
2021/07/20 06:16:05;;;;;;;3.00;2.80;;;;;;;35.12;34.73;99007.29;1730706;82;21411;-50
2021/07/20 06:18:32;;;;;;;2.52;2.33;;;;;;;35.09;34.77;99002.27;1732104;82;21015;-50
2021/07/20 06:21:01;;;;;;;2.70;2.50;;;;;;;35.06;34.83;98995.87;1706219;83;21072;-48
2021/07/20 06:23:32;;;;;;;2.70;2.50;;;;;;;35.04;34.87;98996.64;1714576;83;21802;-49
2021/07/20 06:25:58;;;;;;;4.33;2.40;;;;;;;35.03;34.90;98990.03;1718985;83;21601;-50
2021/07/20 06:28:25;;;;;;;2.65;2.45;;;;;;;35.01;34.95;98988.88;1706305;83;21091;-49
2021/07/20 06:30:52;;;;;;;2.80;2.60;;;;;;;34.98;34.97;98977.86;1705103;84;20996;-50
2021/07/20 06:33:19;;;;;;;2.70;2.50;;;;;;;34.96;35.00;98977.79;1704500;84;21060;-49
2021/07/20 06:35:46;;;;;;;2.90;2.50;;;;;;;34.96;35.04;98991.45;1723652;81;21130;-49
2021/07/20 06:38:15;;;;;;;3.25;2.95;;;;;;;34.94;35.06;98995.78;1711368;83;21088;-50
2021/07/20 06:40:45;;;;;;;2.25;2.10;;;;;;;34.91;35.11;98989.39;1715911;83;21036;-50
2021/07/20 06:43:13;;;;;;;2.47;2.37;;;;;;;34.89;35.12;98991.52;1695338;83;22242;-49
2021/07/20 06:45:41;;;;;;;2.80;2.60;;;;;;;34.89;35.18;98990.69;1715693;83;21056;-49
2021/07/20 06:48:15;;;;;;;2.70;2.35;;;;;;;34.86;35.18;98991.14;1692694;83;23231;-49
2021/07/20 06:50:42;;;;;;;3.37;2.73;;;;;;;34.84;35.25;98998.19;1648051;87;21037;-50
2021/07/20 06:53:13;;;;;;;3.00;2.80;;;;;;;34.83;35.31;98997.05;1681347;85;21065;-49
2021/07/20 06:55:48;;;;;;;2.85;2.67;;;;;;;34.81;35.33;99005.47;1674628;85;21047;-49
2021/07/20 06:58:14;;;;;;;2.60;2.37;;;;;;;34.79;35.34;99010.33;1664565;85;22264;-49
2021/07/20 07:01:00;;;;;;;2.67;2.47;;;;;;;34.78;35.38;99008.64;1684037;85;21137;-50
2021/07/20 07:03:34;;;;;;;2.42;2.33;;;;;;;34.76;35.40;99011.59;1669318;85;21045;-49
2021/07/20 07:06:01;;;;;;;2.60;2.50;;;;;;;34.75;35.43;99008.57;1637696;86;21030;-50
2021/07/20 07:08:28;;;;;;;2.80;2.60;;;;;;;34.74;35.45;99012.35;1649276;85;21041;-49
2021/07/20 07:10:56;;;;;;;3.00;2.80;;;;;;;34.74;35.43;99017.81;1700499;84;21245;-50
2021/07/20 07:13:25;;;;;;;3.60;2.70;;;;;;;34.75;35.45;99016.77;1707885;83;50005;-49
2021/07/20 07:15:52;;;;;;;2.70;2.50;;;;;;;34.75;35.46;99016.77;1707521;83;21032;-48
2021/07/20 07:18:19;;;;;;;2.50;2.30;;;;;;;34.75;35.45;99018.14;1714489;83;21082;-50
2021/07/20 07:20:48;;;;;;;2.83;2.60;;;;;;;34.75;35.45;99011.81;1704745;83;21102;-49
2021/07/20 07:23:16;;;;;;;2.60;2.40;;;;;;;34.75;35.47;99018.14;1704659;83;21484;-49
2021/07/20 07:25:49;;;;;;;3.15;2.85;;;;;;;34.74;35.47;99016.45;1720780;83;21882;-49
2021/07/20 07:28:17;;;;;;;2.80;2.67;;;;;;;34.73;35.49;99014.77;1681170;84;21008;-47
2021/07/20 07:30:43;;;;;;;2.70;2.50;;;;;;;34.72;35.52;99006.28;1680474;83;21175;-49
2021/07/20 07:33:10;;;;;;;2.50;2.33;;;;;;;34.72;35.54;99004.09;1688978;83;21086;-49
2021/07/20 07:35:37;;;;;;;2.77;2.58;;;;;;;34.70;35.58;99007.01;1676207;84;21551;-49
2021/07/20 07:38:03;;;;;;;2.58;2.37;;;;;;;34.69;35.59;99001.77;1682613;85;21166;-49
2021/07/20 07:40:31;;;;;;;2.62;2.42;;;;;;;34.69;35.61;99001.23;1661209;85;21036;-49
2021/07/20 07:43:00;;;;;;;2.92;2.72;;;;;;;34.70;35.61;98996.59;1661057;84;21127;-48
2021/07/20 07:45:26;;;;;;;2.55;2.40;;;;;;;34.70;35.62;98991.98;1661343;85;21076;-49
2021/07/20 07:47:53;;;;;;;2.70;2.50;;;;;;;34.70;35.64;98986.52;1666930;85;21095;-49
2021/07/20 07:50:20;;;;;;;2.83;2.62;;;;;;;34.69;35.62;98987.56;1653770;86;21157;-49
2021/07/20 07:52:47;;;;;;;3.65;2.37;;;;;;;34.68;35.63;98984.52;1632868;86;21060;-49
2021/07/20 07:55:14;;;;;;;2.80;2.60;;;;;;;34.67;35.64;98993.79;1649275;85;21570;-49
2021/07/20 07:57:43;;;;;;;2.47;2.37;;;;;;;34.68;35.69;98995.98;1688491;84;21092;-49
2021/07/20 08:00:11;;;;;;;2.52;2.33;;;;;;;34.65;35.72;98993.18;1661417;84;21822;-47
2021/07/20 08:02:43;;;;;;;2.92;2.72;;;;;;;34.64;35.71;98995.59;1650281;86;21150;-49
2021/07/20 08:05:11;;;;;;;2.62;2.42;;;;;;;34.64;35.74;98996.13;1582812;88;21113;-49
2021/07/20 08:07:38;;;;;;;2.72;2.52;;;;;;;34.64;35.75;98993.41;1689565;84;21054;-48
2021/07/20 08:10:06;;;;;;;2.40;2.30;;;;;;;34.63;35.77;98985.71;1685464;84;21529;-49
2021/07/20 08:12:33;;;;;;;3.47;2.83;;;;;;;34.63;35.80;98991.72;1679344;85;21068;-48
2021/07/20 08:15:02;;;;;;;3.27;2.98;;;;;;;34.64;35.81;98991.49;1681806;84;21052;-49
2021/07/20 08:17:28;;;;;;;2.60;2.40;;;;;;;34.64;35.81;98995.59;1654707;85;21063;-49
2021/07/20 08:19:57;;;;;;;2.75;2.55;;;;;;;34.64;35.80;98996.96;1655184;85;21063;-47
2021/07/20 08:22:25;;;;;;;2.90;2.70;;;;;;;34.64;35.82;99002.97;1656546;84;21080;-50
2021/07/20 08:24:59;;;;;;;2.50;2.33;;;;;;;34.62;35.85;99005.91;1706042;84;21048;-49
2021/07/20 08:27:48;;;;;;;2.62;2.50;;;;;;;34.62;35.85;99005.91;1680005;84;25536;-50
2021/07/20 08:30:15;;;;;;;3.15;2.30;;;;;;;34.61;35.87;99004.23;1653171;86;21025;-49
2021/07/20 08:32:52;;;;;;;2.67;2.47;;;;;;;34.60;35.88;99002.58;1709012;83;21048;-49
2021/07/20 08:35:23;;;;;;;2.58;2.47;;;;;;;34.60;35.90;99001.21;1678222;84;21497;-50
2021/07/20 08:37:50;;;;;;;2.60;2.42;;;;;;;34.60;35.89;99007.50;1696947;84;21725;-49
2021/07/20 08:40:52;;;;;;;2.50;2.33;;;;;;;34.61;35.88;98998.77;1681907;84;21021;-50
2021/07/20 08:44:11;;;;;;;5.12;2.92;;;;;;;34.64;35.89;98998.86;1699738;84;21014;-50
2021/07/20 08:46:46;;;;;;;2.42;2.22;;;;;;;34.64;35.88;98992.86;1680717;84;21021;-49
2021/07/20 08:49:52;;;;;;;2.40;2.30;;;;;;;34.64;35.86;98990.13;1699162;83;21174;-49
2021/07/20 08:52:33;;;;;;;2.58;2.33;;;;;;;34.64;35.88;98991.49;1701890;83;21047;-49
2021/07/20 08:55:12;;;;;;;2.77;2.55;;;;;;;34.65;35.88;98995.05;1695167;83;22167;-49
2021/07/20 08:57:49;;;;;;;2.87;2.67;;;;;;;34.66;35.87;98988.00;1665386;84;20996;-50
2021/07/20 09:00:19;;;;;;;2.52;2.33;;;;;;;34.67;35.86;98986.95;1686944;84;21063;-49
2021/07/20 09:03:14;;;;;;;2.90;2.70;;;;;;;34.68;35.85;98981.78;1681533;85;21526;-49
2021/07/20 09:06:03;;;;;;;2.50;2.40;;;;;;;34.68;35.86;98977.69;1666411;85;21063;-49
2021/07/20 09:08:29;;;;;;;2.62;2.42;;;;;;;34.69;35.88;98975.81;1680881;85;21165;-48
2021/07/20 09:11:11;;;;;;;2.80;2.60;;;;;;;34.69;35.85;98980.73;1669653;84;20910;-49
2021/07/20 09:13:45;;;;;;;2.50;2.40;;;;;;;34.69;35.86;98976.63;1655327;84;22209;-49
2021/07/20 09:16:36;;;;;;;2.58;2.37;;;;;;;34.67;35.86;98971.93;1688324;84;21110;-50
2021/07/20 09:19:30;;;;;;;2.90;2.58;;;;;;;34.68;35.89;98972.22;1673803;85;21582;-50
2021/07/20 09:22:02;;;;;;;2.40;2.30;;;;;;;34.70;35.85;98971.48;1661021;84;21203;-50
2021/07/20 09:24:36;;;;;;;2.20;2.10;;;;;;;34.71;35.85;98964.94;1650653;86;21012;-49
2021/07/20 09:27:13;;;;;;;2.65;2.55;;;;;;;34.71;35.84;98967.67;1650355;84;21037;-49
2021/07/20 09:29:40;;;;;;;2.58;2.33;;;;;;;34.72;35.82;98968.03;1721475;83;21074;-49
2021/07/20 09:32:34;;;;;;;2.87;2.67;;;;;;;34.73;35.83;98962.84;1718482;83;21042;-50
2021/07/20 09:35:06;;;;;;;2.70;2.50;;;;;;;34.73;35.85;98969.68;1723190;83;21155;-50
2021/07/20 09:37:50;;;;;;;3.08;2.33;;;;;;;34.75;35.83;98965.36;1721845;83;21076;-50
2021/07/20 09:40:28;;;;;;;2.50;2.25;;;;;;;34.75;35.81;98956.66;1721225;83;21022;-49
2021/07/20 09:43:08;;;;;;;2.80;2.60;;;;;;;34.77;35.79;98945.50;1721730;83;20990;-49
2021/07/20 09:45:41;;;;;;;2.67;2.47;;;;;;;34.77;35.81;98943.59;1721935;83;21504;-49
2021/07/20 09:48:32;;;;;;;2.60;2.50;;;;;;;34.77;35.80;98939.50;1701175;82;21605;-48
2021/07/20 09:51:21;;;;;;;2.80;2.60;;;;;;;34.79;35.79;98945.56;1688061;84;21035;-48
2021/07/20 09:54:14;;;;;;;2.62;2.40;;;;;;;34.77;35.82;98940.86;1726929;83;21566;-50
2021/07/20 09:57:06;;;;;;;2.33;2.22;;;;;;;34.76;35.82;98944.64;1683614;82;21027;-48
2021/07/20 10:00:07;;;;;;;2.80;2.60;;;;;;;34.75;35.84;98955.28;1736820;82;21053;-49
2021/07/20 10:02:48;;;;;;;2.70;2.50;;;;;;;34.74;35.86;98941.30;1734486;82;21846;-49
2021/07/20 10:05:25;;;;;;;2.50;2.37;;;;;;;34.75;35.88;98938.89;1736913;82;22237;-50
2021/07/20 10:07:58;;;;;;;2.92;2.60;;;;;;;34.74;35.89;98938.57;1744867;82;21103;-48
2021/07/20 10:10:51;;;;;;;2.80;2.55;;;;;;;34.74;35.89;98931.74;1733969;82;21696;-50
2021/07/20 10:13:25;;;;;;;2.50;2.40;;;;;;;34.74;35.90;98924.91;1739490;81;21019;-50
2021/07/20 10:16:14;;;;;;;2.70;2.50;;;;;;;34.76;35.89;98922.78;1742745;82;21271;-49
2021/07/20 10:18:49;;;;;;;2.45;2.35;;;;;;;34.77;35.91;98925.00;1742786;82;21107;-50
2021/07/20 10:21:19;;;;;;;3.20;2.80;;;;;;;34.78;35.89;98928.88;1733036;82;21063;-50
2021/07/20 10:23:55;;;;;;;2.62;2.52;;;;;;;34.78;35.88;98928.02;1690345;83;21048;-50
2021/07/20 10:26:26;;;;;;;2.52;2.33;;;;;;;34.81;35.88;98921.29;1693715;84;21066;-50
2021/07/20 10:29:16;;;;;;;2.22;2.10;;;;;;;34.81;35.86;98914.45;1695825;82;21118;-48
2021/07/20 10:32:19;;;;;;;2.40;2.30;;;;;;;34.82;35.86;98907.91;1652903;86;21048;-49
2021/07/20 10:34:48;;;;;;;2.45;2.35;;;;;;;34.83;35.84;98904.13;1684290;85;21083;-49
2021/07/20 10:37:19;;;;;;;2.27;2.17;;;;;;;34.84;35.81;98908.00;1714999;83;21081;-50
2021/07/20 10:40:06;;;;;;;2.67;2.47;;;;;;;34.85;35.83;98910.19;1663660;85;21528;-49
2021/07/20 10:42:53;;;;;;;2.40;2.20;;;;;;;34.87;35.79;98913.53;1712615;83;21190;-49
2021/07/20 10:45:20;;;;;;;2.22;2.12;;;;;;;34.89;35.81;98907.33;1719348;83;21031;-49
2021/07/20 10:48:11;;;;;;;2.50;2.20;;;;;;;34.90;35.77;98908.98;1699261;83;21025;-50
2021/07/20 10:50:57;;;;;;;2.37;2.17;;;;;;;34.90;35.75;98904.88;1687618;84;22086;-49
2021/07/20 10:53:37;;;;;;;2.22;2.08;;;;;;;34.90;35.75;98893.44;1667888;85;21071;-49
2021/07/20 10:56:12;;;;;;;2.77;2.58;;;;;;;34.93;35.71;98899.80;1700969;83;21992;-49
2021/07/20 10:59:13;;;;;;;2.65;2.45;;;;;;;34.95;35.70;98898.20;1734304;81;21031;-50
2021/07/20 11:02:09;;;;;;;2.70;2.60;;;;;;;34.96;35.69;98901.25;1740370;82;21046;-50
2021/07/20 11:04:58;;;;;;;2.25;2.10;;;;;;;34.97;35.69;98897.47;1719035;82;21027;-46
2021/07/20 11:07:49;;;;;;;2.90;2.70;;;;;;;34.97;35.69;98899.66;1740572;82;21011;-51
2021/07/20 11:10:31;;;;;;;2.77;2.67;;;;;;;34.96;35.70;98893.05;1719951;82;21873;-50
2021/07/20 11:13:07;;;;;;;2.33;2.20;;;;;;;34.96;35.70;98897.16;1697800;84;21545;-49
2021/07/20 11:15:35;;;;;;;2.27;2.17;;;;;;;34.95;35.73;98899.06;1663811;85;21035;-50
2021/07/20 11:18:05;;;;;;;2.50;2.40;;;;;;;34.94;35.73;98893.28;1697912;84;21549;-50
2021/07/20 11:20:34;;;;;;;2.60;2.50;;;;;;;34.94;35.75;98891.91;1697754;84;21058;-49
2021/07/20 11:23:01;;;;;;;2.60;2.50;;;;;;;34.94;35.75;98889.17;1658101;85;21227;-49
2021/07/20 11:25:28;;;;;;;2.58;2.37;;;;;;;34.95;35.77;98891.38;1611816;86;21086;-49
2021/07/20 11:27:54;;;;;;;2.90;2.70;;;;;;;34.93;35.80;98882.03;1663005;85;21099;-50
2021/07/20 11:30:20;;;;;;;2.67;2.55;;;;;;;34.93;35.82;98885.30;1680494;84;20976;-48
2021/07/20 11:32:57;;;;;;;2.25;2.15;;;;;;;34.93;35.83;98881.20;1695762;83;21317;-49
2021/07/20 11:35:22;;;;;;;2.80;2.60;;;;;;;34.91;35.84;98876.50;1686952;84;21143;-50
2021/07/20 11:37:57;;;;;;;2.77;2.58;;;;;;;34.91;35.86;98877.87;1692518;83;21013;-47
2021/07/20 11:40:25;;;;;;;2.45;2.27;;;;;;;34.88;35.91;98872.85;1720738;83;21054;-49
2021/07/20 11:43:02;;;;;;;2.50;2.40;;;;;;;34.87;35.92;98878.00;1695115;83;21067;-49
2021/07/20 11:45:36;;;;;;;2.58;2.40;;;;;;;34.84;36.01;98879.84;1695106;83;21394;-50
2021/07/20 11:48:06;;;;;;;2.22;2.12;;;;;;;34.81;36.05;98872.09;1718993;83;21119;-50
2021/07/20 11:50:41;;;;;;;2.50;2.40;;;;;;;34.77;36.09;98869.81;1713270;83;21039;-49
2021/07/20 11:53:39;;;;;;;3.10;2.77;;;;;;;34.75;36.16;98882.88;1713287;83;21051;-49
2021/07/20 11:56:29;;;;;;;2.80;2.60;;;;;;;34.72;36.21;98885.23;1702248;83;21047;-50
2021/07/20 11:59:36;;;;;;;2.62;2.52;;;;;;;34.67;36.27;98887.23;1712247;83;21046;-50
2021/07/20 12:02:47;;;;;;;2.70;2.52;;;;;;;34.63;36.36;98897.45;1719953;83;21691;-50
2021/07/20 12:05:46;;;;;;;2.60;2.40;;;;;;;34.58;36.46;98904.45;1688337;83;21687;-49
2021/07/20 12:08:38;;;;;;;3.10;2.90;;;;;;;34.53;36.51;98894.72;1713533;83;21050;-49
2021/07/20 12:11:24;;;;;;;2.42;2.33;;;;;;;34.49;36.59;98893.48;1711722;83;21142;-50